ADDS METAR Data INFO
IDs: Format: Raw Decoded Include TAF

Data at: 0251 UTC 21 Jan 2018

KLUK 210153Z 20006KT 10SM OVC016 07/04 A3014 RMK AO2 SLP207 T00670039
KLUK 210053Z 20006KT 10SM OVC020 07/04 A3013 RMK AO2 SLP206 T00720039
KLUK 210010Z 20007KT 10SM BKN022 OVC031 07/02 A3012 RMK AO2 T00720022
KLUK 202353Z 20007KT 10SM OVC030 08/02 A3012 RMK AO2 SLP201 T00780017 10094 20072 53006
KLUK 202253Z 21007KT 10SM BKN032 OVC048 07/01 A3011 RMK AO2 SLP200 T00720011
KLUK 202153Z 20005KT 10SM OVC030 08/01 A3011 RMK AO2 SLP197 T00780011
KLUK 202053Z 21007KT 10SM OVC031 08/01 A3010 RMK AO2 SLP196 T00830006 55002
KLUK 201953Z 20009KT 10SM SCT030 09/00 A3008 RMK AO2 SLP189 T00940000
KLUK 201853Z 21013KT 10SM SCT028 09/M01 A3009 RMK AO2 SLP191 T00891006
KLUK 201753Z 22013KT 10SM CLR 08/M02 A3011 RMK AO2 SLP198 T00781022 10078 20011 58006
KLUK 201653Z 22012KT 10SM CLR 07/M03 A3012 RMK AO2 SLP203 T00671028
KLUK 201553Z 23011G21KT 10SM CLR 06/M04 A3013 RMK AO2 SLP206 T00561039
KLUK 201453Z 22013G19KT 10SM CLR 04/M04 A3013 RMK AO2 SLP204 T00441044 51011
KLUK 201353Z 21012KT 10SM CLR 03/M04 A3012 RMK AO2 SLP203 T00281039
KLUK 201253Z 20009KT 10SM CLR 01/M04 A3011 RMK AO2 SLP199 T00111044
KLUK 201153Z 20009KT 10SM CLR 02/M04 A3009 RMK AO2 SLP193 T00171039 10022 21022 51010
KLUK 201053Z AUTO 19009KT 10SM CLR 02/M04 A3008 RMK AO2 SLP190 T00171039
KLUK 200953Z AUTO 21005KT 10SM CLR 02/M04 A3008 RMK AO2 SLP188 T00171044
KLUK 200853Z AUTO VRB03KT 10SM CLR M01/M06 A3006 RMK AO2 SLP183 T10061056 53005
KLUK 200753Z AUTO 10SM CLR M01/M06 A3006 RMK AO2 SLP182 T10111056
KLUK 200653Z AUTO 21005KT 10SM SCT028 00/M06 A3005 RMK AO2 SLP181 T00001056
KLUK 200553Z AUTO 20006KT 10SM CLR 01/M06 A3005 RMK AO2 SLP179 T00061056 10028 20006 56006
KLUK 200453Z AUTO 19009KT 10SM CLR 01/M06 A3005 RMK AO2 SLP180 T00061061 400501067
KLUK 200353Z 19008KT 10SM CLR 01/M06 A3006 RMK AO2 SLP182 T00111061
KLUK 200253Z 20011KT 10SM CLR 02/M06 A3007 RMK AO2 SLP186 T00171061 58001
KLUK 200153Z 20014KT 10SM CLR 02/M06 A3008 RMK AO2 SLP190 T00171061
KLUK 200053Z 20007KT 10SM CLR 01/M06 A3008 RMK AO2 SLP191 T00111061
KLUK 192353Z 20011KT 10SM CLR 03/M06 A3007 RMK AO2 SLP187 T00281056 10050 20022 58004
KLUK 192253Z 21010KT 10SM CLR 04/M06 A3008 RMK AO2 SLP190 T00391056
KLUK 192153Z 21012G21KT 10SM CLR 04/M06 A3008 RMK AO2 SLP190 T00441061
KLUK 192053Z 21017G22KT 10SM CLR 05/M07 A3008 RMK AO2 SLP191 T00501067 56021
KLUK 191953Z 20011KT 10SM CLR 04/M06 A3009 RMK AO2 SLP194 T00441061
KLUK 191853Z 21011KT 10SM CLR 03/M07 A3011 RMK AO2 SLP202 T00331067
KLUK 191753Z 21012KT 10SM CLR 02/M08 A3014 RMK AO2 SLP213 T00221078 10022 21067 58021
KLUK 191653Z 20013KT 10SM CLR 00/M08 A3017 RMK AO2 PRESFR SLP221 T00001083
KLUK 191553Z 19009KT 10SM CLR M02/M09 A3021 RMK AO2 SLP235 T10171089
KLUK 191453Z 18008KT 10SM CLR M04/M10 A3021 RMK AO2 SLP235 T10391100 50001